createdAt,value
2018-04-19T00:00:19.659Z,12.90
2018-04-19T00:02:45.405Z,13.33
2018-04-19T00:05:11.171Z,11.10
2018-04-19T00:07:36.923Z,12.97
2018-04-19T00:10:02.669Z,13.67
2018-04-19T00:12:28.432Z,13.00
2018-04-19T00:14:54.198Z,15.40
2018-04-19T00:17:19.936Z,14.97
2018-04-19T00:19:45.680Z,16.73
2018-04-19T00:22:11.460Z,12.30
2018-04-19T00:24:37.188Z,12.93
2018-04-19T00:27:02.935Z,10.83
2018-04-19T00:29:28.711Z,13.30
2018-04-19T00:31:54.449Z,10.93
2018-04-19T00:34:20.208Z,10.10
2018-04-19T00:36:45.952Z,12.67
2018-04-19T00:39:11.713Z,11.90
2018-04-19T00:41:37.465Z,14.70
2018-04-19T00:44:03.230Z,12.77
2018-04-19T00:46:28.976Z,15.67
2018-04-19T00:48:54.741Z,14.97
2018-04-19T00:51:20.482Z,12.73
2018-04-19T00:53:46.249Z,12.40
2018-04-19T00:56:12.000Z,16.00
2018-04-19T00:58:37.744Z,14.33
2018-04-19T01:01:03.490Z,16.50
2018-04-19T01:03:29.245Z,18.67
2018-04-19T01:05:54.984Z,15.73
2018-04-19T01:08:20.716Z,13.57
2018-04-19T01:10:46.456Z,20.10
2018-04-19T01:13:12.226Z,19.20
2018-04-19T01:15:37.984Z,15.53
2018-04-19T01:18:03.732Z,15.40
2018-04-19T01:20:29.501Z,17.03
2018-04-19T01:22:55.237Z,16.87
2018-04-19T01:25:20.988Z,21.30
2018-04-19T01:27:46.727Z,21.63
2018-04-19T01:30:12.471Z,19.27
2018-04-19T01:32:38.208Z,22.93
2018-04-19T01:35:03.954Z,18.13
2018-04-19T01:37:29.693Z,20.57
2018-04-19T01:39:55.460Z,22.17
2018-04-19T01:42:21.197Z,15.30
2018-04-19T01:44:46.960Z,21.23
2018-04-19T01:47:12.706Z,16.17
2018-04-19T01:49:38.456Z,21.57
2018-04-19T01:52:04.218Z,22.00
2018-04-19T01:54:29.944Z,18.77
2018-04-19T01:56:55.685Z,18.73
2018-04-19T01:59:21.409Z,21.67
2018-04-19T02:01:47.160Z,25.73
2018-04-19T02:04:12.900Z,17.97
2018-04-19T02:06:38.653Z,22.97
2018-04-19T02:09:04.400Z,19.73
2018-04-19T02:11:30.152Z,17.50
2018-04-19T02:13:55.901Z,25.37
2018-04-19T02:16:21.648Z,28.37
2018-04-19T02:18:47.381Z,31.63
2018-04-19T02:21:13.116Z,19.90
2018-04-19T02:23:38.849Z,21.13
2018-04-19T02:26:04.599Z,25.03
2018-04-19T02:28:30.345Z,25.70
2018-04-19T02:30:56.080Z,25.83
2018-04-19T02:33:21.817Z,21.77
2018-04-19T02:35:47.602Z,21.83
2018-04-19T02:38:13.334Z,26.00
2018-04-19T02:40:39.069Z,29.77
2018-04-19T02:43:04.811Z,34.03
2018-04-19T02:45:30.556Z,26.73
2018-04-19T02:47:56.296Z,25.93
2018-04-19T02:50:22.048Z,24.10
2018-04-19T02:52:47.791Z,26.17
2018-04-19T02:55:13.526Z,29.60
2018-04-19T02:57:39.275Z,36.00
2018-04-19T03:00:05.024Z,27.57
2018-04-19T03:02:30.768Z,21.40
2018-04-19T03:04:56.511Z,30.03
2018-04-19T03:07:22.271Z,27.10
2018-04-19T03:09:48.020Z,28.20
2018-04-19T03:12:13.768Z,22.37
2018-04-19T03:14:39.511Z,19.50
2018-04-19T03:17:05.258Z,22.80
2018-04-19T03:19:31.025Z,36.50
2018-04-19T03:21:56.768Z,28.07
2018-04-19T03:24:22.531Z,36.50
2018-04-19T03:26:48.279Z,31.67
2018-04-19T03:29:14.032Z,36.13
2018-04-19T03:31:39.775Z,35.43
2018-04-19T03:34:05.525Z,18.67
2018-04-19T03:36:31.259Z,23.83
2018-04-19T03:38:56.997Z,32.63
2018-04-19T03:41:22.744Z,31.63
2018-04-19T03:43:48.492Z,34.97
2018-04-19T03:46:14.233Z,26.90
2018-04-19T03:48:39.993Z,20.90
2018-04-19T03:51:05.740Z,20.83
2018-04-19T03:53:31.485Z,22.20
2018-04-19T03:55:57.220Z,23.07
2018-04-19T03:58:22.980Z,20.93
2018-04-19T04:00:48.724Z,26.77
2018-04-19T04:03:14.466Z,22.77
2018-04-19T04:05:40.217Z,21.67
2018-04-19T04:08:05.949Z,34.10
2018-04-19T04:10:31.689Z,38.47
2018-04-19T04:12:57.428Z,26.70
2018-04-19T04:15:23.185Z,25.10
2018-04-19T04:18:01.456Z,23.17
2018-04-19T04:20:39.460Z,24.07
2018-04-19T04:23:21.580Z,25.27
2018-04-19T04:25:47.333Z,28.90
2018-04-19T04:28:13.072Z,22.60
2018-04-19T04:30:39.608Z,22.07
2018-04-19T04:33:05.348Z,22.30
2018-04-19T04:35:31.109Z,24.23
2018-04-19T04:37:56.856Z,28.23
2018-04-19T04:40:22.616Z,26.97
2018-04-19T04:42:48.353Z,24.93
2018-04-19T04:45:14.091Z,25.83
2018-04-19T04:47:39.843Z,23.70
2018-04-19T04:50:05.602Z,24.27
2018-04-19T04:52:31.340Z,25.83
2018-04-19T04:54:57.080Z,23.70
2018-04-19T04:57:22.819Z,23.47
2018-04-19T04:59:48.579Z,22.93
2018-04-19T05:02:14.325Z,25.73
2018-04-19T05:04:40.063Z,23.73
2018-04-19T05:07:05.824Z,28.00
2018-04-19T05:09:31.571Z,26.50
2018-04-19T05:11:57.325Z,31.13
2018-04-19T05:14:23.158Z,21.40
2018-04-19T05:16:48.826Z,21.17
2018-04-19T05:19:14.552Z,32.47
2018-04-19T05:21:40.300Z,26.80
2018-04-19T05:24:06.031Z,26.27
2018-04-19T05:26:31.776Z,24.13
2018-04-19T05:28:57.522Z,24.83
2018-04-19T05:31:23.272Z,26.77
2018-04-19T05:33:49.008Z,25.63
2018-04-19T05:36:14.744Z,23.93
2018-04-19T05:38:40.502Z,23.03
2018-04-19T05:41:06.240Z,27.53
2018-04-19T05:43:31.964Z,24.63
2018-04-19T05:45:57.708Z,20.97
2018-04-19T05:48:23.454Z,29.60
2018-04-19T05:50:49.221Z,24.23
2018-04-19T05:53:14.960Z,24.30
2018-04-19T05:55:40.691Z,24.37
2018-04-19T05:58:13.497Z,24.87
2018-04-19T06:00:39.244Z,23.43
2018-04-19T06:03:05.039Z,22.87
2018-04-19T06:05:30.712Z,22.20
2018-04-19T06:07:56.474Z,19.40
2018-04-19T06:10:22.210Z,23.13
2018-04-19T06:12:47.966Z,18.53
2018-04-19T06:15:13.715Z,20.13
2018-04-19T06:17:39.463Z,22.50
2018-04-19T06:20:05.210Z,25.67
2018-04-19T06:22:30.969Z,25.07
2018-04-19T06:24:56.761Z,23.07
2018-04-19T06:27:22.456Z,18.77
2018-04-19T06:29:48.188Z,19.77
2018-04-19T06:32:13.940Z,21.43
2018-04-19T06:34:39.691Z,17.97
2018-04-19T06:37:05.428Z,18.50
2018-04-19T06:39:31.173Z,19.23
2018-04-19T06:41:56.921Z,17.53
2018-04-19T06:44:22.682Z,13.83
2018-04-19T06:46:48.421Z,16.13
2018-04-19T06:49:14.156Z,16.00
2018-04-19T06:51:39.892Z,15.90
2018-04-19T06:54:05.636Z,14.97
2018-04-19T06:56:31.364Z,14.37
2018-04-19T06:58:57.098Z,12.97
2018-04-19T07:01:22.832Z,15.83
2018-04-19T07:03:48.576Z,14.13
2018-04-19T07:06:14.303Z,12.90
2018-04-19T07:08:40.062Z,12.17
2018-04-19T07:11:05.804Z,15.27
2018-04-19T07:13:31.546Z,14.33
2018-04-19T07:15:57.284Z,12.80
2018-04-19T07:18:23.024Z,16.20
2018-04-19T07:20:48.760Z,17.07
2018-04-19T07:23:14.507Z,12.57
2018-04-19T07:25:40.236Z,14.47
2018-04-19T07:28:13.004Z,11.73
2018-04-19T07:30:38.755Z,15.80
2018-04-19T07:33:04.488Z,12.13
2018-04-19T07:35:30.233Z,13.23
2018-04-19T07:37:55.965Z,11.63
2018-04-19T07:40:21.720Z,12.00
2018-04-19T07:42:47.446Z,14.07
2018-04-19T07:45:13.206Z,14.60
2018-04-19T07:47:38.940Z,15.20
2018-04-19T07:50:04.712Z,12.63
2018-04-19T07:52:30.462Z,16.70
2018-04-19T07:54:56.210Z,10.13
2018-04-19T07:57:21.951Z,12.60
2018-04-19T07:59:47.704Z,12.57
2018-04-19T08:02:13.448Z,12.60
2018-04-19T08:04:39.200Z,15.10
2018-04-19T08:07:04.929Z,13.97
2018-04-19T08:09:30.707Z,12.70
2018-04-19T08:11:56.449Z,17.40
2018-04-19T08:14:22.180Z,14.47
2018-04-19T08:16:47.937Z,12.13
2018-04-19T08:19:13.673Z,13.33
2018-04-19T08:21:39.419Z,10.97
2018-04-19T08:24:05.154Z,16.33
2018-04-19T08:26:30.916Z,18.00
2018-04-19T08:28:56.647Z,12.10
2018-04-19T08:31:22.417Z,19.90
2018-04-19T08:33:48.146Z,12.90
2018-04-19T08:36:13.908Z,14.47
2018-04-19T08:38:39.665Z,13.80
2018-04-19T08:41:05.415Z,18.33
2018-04-19T08:43:31.144Z,14.43
2018-04-19T08:45:56.892Z,16.07
2018-04-19T08:48:22.637Z,13.43
2018-04-19T08:50:48.388Z,13.90
2018-04-19T08:53:14.134Z,12.50
2018-04-19T08:55:39.868Z,14.87
2018-04-19T08:58:05.604Z,11.47
2018-04-19T09:00:31.324Z,15.33
2018-04-19T09:02:57.106Z,15.37
2018-04-19T09:05:22.837Z,14.47
2018-04-19T09:07:48.581Z,15.40
2018-04-19T09:10:14.330Z,17.17
2018-04-19T09:12:40.089Z,16.50
2018-04-19T09:15:05.824Z,15.07
2018-04-19T09:17:31.584Z,14.00
2018-04-19T09:19:57.328Z,15.87
2018-04-19T09:22:23.148Z,17.37
2018-04-19T09:24:48.836Z,17.03
2018-04-19T09:27:14.568Z,14.97
2018-04-19T09:29:40.319Z,16.67
2018-04-19T09:32:06.061Z,17.80
2018-04-19T09:34:31.827Z,17.17
2018-04-19T09:36:57.568Z,14.33
2018-04-19T09:39:23.306Z,19.60
2018-04-19T09:41:49.057Z,17.17
2018-04-19T09:44:14.814Z,17.17
2018-04-19T09:46:40.608Z,16.33
2018-04-19T09:49:06.320Z,20.60
2018-04-19T09:51:32.071Z,20.70
2018-04-19T09:53:57.863Z,17.80
2018-04-19T09:56:23.572Z,18.57
2018-04-19T09:59:01.735Z,18.13
2018-04-19T10:01:27.481Z,16.47
2018-04-19T10:03:53.243Z,19.83
2018-04-19T10:06:18.969Z,18.00
2018-04-19T10:08:44.720Z,18.53
2018-04-19T10:11:10.470Z,18.27
2018-04-19T10:13:36.207Z,17.00
2018-04-19T10:16:02.028Z,18.70
2018-04-19T10:18:27.707Z,21.60
2018-04-19T10:20:53.472Z,16.40
2018-04-19T10:23:19.218Z,21.73
2018-04-19T10:25:44.973Z,18.03
2018-04-19T10:28:10.710Z,19.40
2018-04-19T10:30:36.449Z,25.73
2018-04-19T10:33:02.218Z,20.00
2018-04-19T10:35:27.972Z,22.30
2018-04-19T10:37:53.712Z,19.00
2018-04-19T10:40:19.461Z,19.13
2018-04-19T10:42:45.203Z,17.30
2018-04-19T10:45:10.955Z,16.90
2018-04-19T10:47:36.700Z,17.73
2018-04-19T10:50:02.452Z,18.63
2018-04-19T10:52:28.193Z,16.67
2018-04-19T10:54:53.958Z,23.67
2018-04-19T10:57:19.695Z,17.93
2018-04-19T10:59:45.441Z,21.17
2018-04-19T11:02:11.193Z,18.10
2018-04-19T11:04:36.942Z,20.87
2018-04-19T11:07:02.704Z,16.90
2018-04-19T11:09:28.449Z,20.50
2018-04-19T11:11:54.205Z,17.47
2018-04-19T11:14:19.947Z,23.53
2018-04-19T11:16:45.709Z,24.73
2018-04-19T11:19:11.461Z,17.27
2018-04-19T11:21:37.205Z,16.70
2018-04-19T11:24:02.940Z,20.20
2018-04-19T11:26:28.681Z,17.70
2018-04-19T11:28:54.432Z,18.33
2018-04-19T11:31:20.193Z,18.97
2018-04-19T11:33:45.929Z,15.67
2018-04-19T11:36:11.682Z,21.53
2018-04-19T11:38:37.411Z,16.57
2018-04-19T11:41:03.163Z,16.40
2018-04-19T11:43:28.922Z,19.87
2018-04-19T11:45:54.661Z,19.00
2018-04-19T11:48:20.412Z,20.60
2018-04-19T11:50:46.148Z,19.00
2018-04-19T11:53:11.908Z,20.47
2018-04-19T11:55:37.656Z,20.13
2018-04-19T11:58:03.393Z,21.93
2018-04-19T12:00:29.139Z,16.67
2018-04-19T12:02:54.892Z,14.40
2018-04-19T12:05:20.644Z,17.07
2018-04-19T12:07:46.396Z,17.23
2018-04-19T12:10:12.145Z,15.57
2018-04-19T12:12:37.892Z,17.83
2018-04-19T12:15:03.638Z,17.37
2018-04-19T12:17:29.393Z,15.43
2018-04-19T12:19:55.148Z,17.03
2018-04-19T12:22:20.887Z,17.73
2018-04-19T12:24:46.649Z,16.90
2018-04-19T12:27:12.400Z,13.93
2018-04-19T12:29:38.165Z,16.57
2018-04-19T12:32:03.917Z,17.27
2018-04-19T12:34:29.662Z,18.97
2018-04-19T12:36:55.415Z,16.50
2018-04-19T12:39:21.148Z,18.03
2018-04-19T12:41:46.896Z,15.60
2018-04-19T12:44:12.660Z,18.97
2018-04-19T12:46:38.418Z,16.10
2018-04-19T12:49:04.169Z,17.80
2018-04-19T12:51:29.928Z,16.93
2018-04-19T12:53:55.677Z,17.67
2018-04-19T12:56:21.407Z,19.23
2018-04-19T12:58:47.165Z,18.83
2018-04-19T13:01:12.916Z,14.33
2018-04-19T13:03:38.664Z,13.67
2018-04-19T13:06:04.451Z,14.50
2018-04-19T13:08:30.204Z,15.13
2018-04-19T13:10:55.948Z,13.90
2018-04-19T13:13:21.688Z,18.20
2018-04-19T13:15:47.438Z,17.60
2018-04-19T13:18:13.201Z,18.07
2018-04-19T13:20:38.944Z,17.50
2018-04-19T13:23:04.702Z,18.90
2018-04-19T13:25:30.477Z,13.57
2018-04-19T13:27:56.237Z,14.50
2018-04-19T13:30:21.990Z,14.83
2018-04-19T13:32:47.741Z,16.93
2018-04-19T13:35:13.500Z,14.20
2018-04-19T13:37:39.247Z,14.50
2018-04-19T13:40:05.008Z,15.30
2018-04-19T13:42:30.759Z,16.13
2018-04-19T13:44:56.523Z,15.20
2018-04-19T13:47:22.270Z,15.40
2018-04-19T13:49:48.038Z,14.10
2018-04-19T13:52:13.783Z,16.77
2018-04-19T13:54:39.551Z,18.50
2018-04-19T13:57:05.298Z,18.93
2018-04-19T13:59:31.048Z,13.77
2018-04-19T14:01:56.807Z,15.90
2018-04-19T14:04:22.540Z,15.67
2018-04-19T14:06:48.279Z,15.40
2018-04-19T14:09:14.033Z,15.87
2018-04-19T14:11:39.780Z,14.83
2018-04-19T14:14:05.525Z,15.03
2018-04-19T14:16:31.265Z,18.13
2018-04-19T14:18:57.028Z,17.00
2018-04-19T14:21:22.782Z,17.23
2018-04-19T14:23:48.525Z,14.77
2018-04-19T14:26:14.291Z,17.60
2018-04-19T14:28:40.038Z,15.60
2018-04-19T14:31:05.793Z,11.93
2018-04-19T14:33:31.544Z,15.37
2018-04-19T14:35:57.295Z,16.60
2018-04-19T14:38:23.063Z,18.20
2018-04-19T14:40:48.808Z,11.13
2018-04-19T14:43:14.557Z,14.03
2018-04-19T14:45:40.347Z,14.10
2018-04-19T14:48:06.093Z,13.40
2018-04-19T14:50:31.868Z,17.17
2018-04-19T14:52:57.604Z,14.03
2018-04-19T14:55:23.367Z,13.67
2018-04-19T14:57:49.894Z,15.13
2018-04-19T15:00:17.729Z,12.93
2018-04-19T15:02:43.630Z,15.20
2018-04-19T15:05:09.374Z,13.50
2018-04-19T15:07:35.131Z,13.17
2018-04-19T15:10:00.895Z,12.20
2018-04-19T15:12:26.645Z,15.90
2018-04-19T15:14:52.392Z,12.83
2018-04-19T15:17:18.137Z,17.57
2018-04-19T15:19:43.890Z,11.93
2018-04-19T15:22:09.632Z,12.80
2018-04-19T15:24:35.386Z,14.73
2018-04-19T15:27:01.133Z,12.87
2018-04-19T15:29:26.882Z,16.23
2018-04-19T15:31:52.659Z,13.23
2018-04-19T15:34:18.392Z,16.90
2018-04-19T15:36:44.185Z,10.73
2018-04-19T15:39:09.920Z,13.23
2018-04-19T15:41:35.704Z,11.83
2018-04-19T15:44:01.452Z,14.97
2018-04-19T15:46:27.196Z,12.10
2018-04-19T15:48:52.936Z,11.87
2018-04-19T15:51:18.688Z,13.27
2018-04-19T15:53:44.429Z,14.43
2018-04-19T15:56:10.172Z,12.13
2018-04-19T15:58:35.914Z,13.00
2018-04-19T16:01:01.664Z,11.50
2018-04-19T16:03:27.407Z,31.13
2018-04-19T16:05:53.180Z,15.37
2018-04-19T16:08:18.933Z,14.27
2018-04-19T16:10:44.690Z,12.77
2018-04-19T16:13:10.431Z,15.03
2018-04-19T16:15:36.177Z,13.83
2018-04-19T16:18:01.928Z,17.40
2018-04-19T16:20:27.685Z,14.17
2018-04-19T16:22:53.414Z,14.43
2018-04-19T16:25:19.165Z,13.97
2018-04-19T16:27:44.905Z,20.63
2018-04-19T16:30:10.653Z,13.50
2018-04-19T16:32:36.404Z,15.30
2018-04-19T16:35:02.213Z,15.37
2018-04-19T16:37:28.023Z,16.23
2018-04-19T16:39:53.716Z,14.67
2018-04-19T16:42:19.472Z,15.90
2018-04-19T16:44:45.265Z,15.73
2018-04-19T16:47:10.971Z,20.53
2018-04-19T16:49:37.141Z,18.63
2018-04-19T16:52:02.904Z,19.27
2018-04-19T16:54:28.642Z,16.43
2018-04-19T16:56:54.409Z,17.73
2018-04-19T16:59:20.148Z,23.37
2018-04-19T17:01:45.921Z,15.90
2018-04-19T17:04:11.654Z,17.43
2018-04-19T17:06:37.431Z,18.17
2018-04-19T17:09:03.185Z,15.40
2018-04-19T17:11:28.932Z,17.53
2018-04-19T17:13:54.828Z,15.33
2018-04-19T17:16:20.598Z,14.73
2018-04-19T17:18:46.327Z,15.47
2018-04-19T17:21:12.072Z,15.03
2018-04-19T17:23:37.820Z,16.67
2018-04-19T17:26:03.587Z,15.67
2018-04-19T17:28:29.323Z,17.27
2018-04-19T17:30:55.081Z,17.47
2018-04-19T17:33:20.825Z,16.97
2018-04-19T17:35:46.574Z,19.47
2018-04-19T17:38:12.313Z,17.87
2018-04-19T17:40:38.059Z,20.50
2018-04-19T17:43:03.811Z,19.13
2018-04-19T17:45:29.561Z,16.30
2018-04-19T17:47:55.302Z,16.50
2018-04-19T17:50:21.049Z,17.07
2018-04-19T17:52:46.859Z,18.63
2018-04-19T17:55:12.586Z,19.57
2018-04-19T17:57:38.339Z,15.93
2018-04-19T18:00:04.082Z,17.03
2018-04-19T18:02:29.836Z,21.40
2018-04-19T18:04:55.573Z,19.03
2018-04-19T18:07:21.329Z,18.33
2018-04-19T18:09:47.065Z,17.60
2018-04-19T18:12:12.830Z,19.43
2018-04-19T18:14:38.593Z,18.57
2018-04-19T18:17:04.354Z,17.77
2018-04-19T18:19:30.100Z,16.47
2018-04-19T18:21:55.849Z,15.93
2018-04-19T18:24:21.582Z,14.37
2018-04-19T18:26:47.341Z,18.07
2018-04-19T18:29:13.082Z,13.20
2018-04-19T18:31:38.844Z,15.50
2018-04-19T18:34:04.572Z,15.17
2018-04-19T18:36:30.325Z,18.33
2018-04-19T18:38:56.076Z,15.50
2018-04-19T18:41:21.820Z,12.17
2018-04-19T18:43:48.463Z,17.10
2018-04-19T18:46:14.276Z,15.50
2018-04-19T18:48:40.033Z,14.97
2018-04-19T18:51:05.797Z,18.07
2018-04-19T18:53:31.548Z,16.03
2018-04-19T18:55:57.277Z,14.87
2018-04-19T18:58:23.057Z,13.60
2018-04-19T19:00:48.785Z,13.30
2018-04-19T19:03:14.528Z,16.47
2018-04-19T19:05:40.270Z,15.93
2018-04-19T19:08:06.025Z,19.17
2018-04-19T19:10:31.772Z,13.90
2018-04-19T19:12:57.521Z,16.77
2018-04-19T19:18:46.652Z,14.93
2018-04-19T19:21:12.396Z,16.27
2018-04-19T19:23:38.157Z,13.67
2018-04-19T19:26:03.905Z,14.67
2018-04-19T19:28:29.648Z,14.30
2018-04-19T19:30:55.371Z,19.80
2018-04-19T19:33:21.124Z,15.63
2018-04-19T19:35:46.869Z,14.83
2018-04-19T19:38:12.602Z,17.07
2018-04-19T19:40:38.345Z,19.27
2018-04-19T19:43:04.092Z,16.60
2018-04-19T19:45:29.894Z,13.67
2018-04-19T19:47:55.601Z,18.60
2018-04-19T19:50:21.349Z,13.57
2018-04-19T19:52:47.117Z,17.03
2018-04-19T19:55:12.861Z,16.17
2018-04-19T19:57:38.637Z,16.90
2018-04-19T20:00:04.391Z,14.77
2018-04-19T20:02:30.250Z,14.40
2018-04-19T20:04:56.117Z,13.73
2018-04-19T20:07:21.869Z,14.33
2018-04-19T20:09:47.610Z,15.80
2018-04-19T20:12:13.369Z,12.43
2018-04-19T20:14:39.166Z,15.63
2018-04-19T20:17:05.109Z,15.00
2018-04-19T20:19:30.913Z,15.30
2018-04-19T20:21:56.623Z,13.97
2018-04-19T20:24:22.396Z,16.47
2018-04-19T20:26:48.129Z,11.73
2018-04-19T20:29:13.875Z,13.53
2018-04-19T20:31:39.615Z,13.20
2018-04-19T20:34:05.361Z,14.57
2018-04-19T20:36:31.091Z,15.47
2018-04-19T20:38:57.853Z,11.73
2018-04-19T20:41:24.458Z,14.17
2018-04-19T20:43:50.229Z,13.83
2018-04-19T20:46:15.984Z,11.63
2018-04-19T20:48:41.730Z,11.67
2018-04-19T20:51:07.642Z,14.53
2018-04-19T20:53:33.552Z,12.07
2018-04-19T20:55:59.291Z,14.37
2018-04-19T20:58:25.417Z,17.23
2018-04-19T21:00:51.205Z,14.07
2018-04-19T21:03:24.023Z,13.50
2018-04-19T21:05:49.992Z,11.87
2018-04-19T21:08:15.760Z,11.67
2018-04-19T21:10:41.613Z,13.53
2018-04-19T21:13:07.414Z,11.87
2018-04-19T21:15:33.144Z,14.40
2018-04-19T21:17:58.900Z,14.43
2018-04-19T21:20:24.849Z,12.03
2018-04-19T21:22:50.680Z,13.10
2018-04-19T21:25:16.412Z,12.53
2018-04-19T21:27:42.173Z,13.27
2018-04-19T21:30:07.932Z,16.90
2018-04-19T21:32:33.675Z,12.10
2018-04-19T21:34:59.419Z,13.00
2018-04-19T21:37:25.152Z,13.60
2018-04-19T21:39:50.891Z,14.10
2018-04-19T21:42:16.623Z,15.50
2018-04-19T21:44:42.367Z,15.67
2018-04-19T21:47:08.087Z,15.90
2018-04-19T21:49:33.845Z,12.67
2018-04-19T21:51:59.602Z,12.43
2018-04-19T21:54:25.354Z,12.23
2018-04-19T21:56:51.096Z,12.97
2018-04-19T21:59:16.842Z,14.80
2018-04-19T22:01:42.650Z,14.43
2018-04-19T22:04:08.356Z,17.10
2018-04-19T22:06:34.096Z,13.63
2018-04-19T22:08:59.846Z,16.93
2018-04-19T22:11:25.597Z,17.20
2018-04-19T22:13:51.332Z,15.83
2018-04-19T22:16:17.072Z,14.83
2018-04-19T22:18:42.816Z,14.37
2018-04-19T22:21:08.545Z,14.03
2018-04-19T22:23:34.300Z,13.33
2018-04-19T22:26:00.048Z,16.20
2018-04-19T22:28:25.804Z,13.60
2018-04-19T22:30:51.561Z,13.90
2018-04-19T22:33:17.318Z,15.70
2018-04-19T22:35:43.053Z,13.67
2018-04-19T22:38:08.798Z,13.30
2018-04-19T22:40:34.540Z,14.20
2018-04-19T22:43:00.668Z,15.33
2018-04-19T22:45:26.823Z,11.93
2018-04-19T22:47:52.933Z,14.20
2018-04-19T22:50:19.058Z,13.47
2018-04-19T22:52:45.185Z,12.93
2018-04-19T22:55:10.984Z,13.90
2018-04-19T22:57:36.736Z,14.80
2018-04-19T23:00:02.492Z,14.80
2018-04-19T23:02:28.229Z,13.07
2018-04-19T23:04:53.968Z,12.60
2018-04-19T23:07:19.688Z,15.50
2018-04-19T23:09:45.433Z,17.70
2018-04-19T23:12:11.177Z,15.63
2018-04-19T23:14:36.913Z,14.77
2018-04-19T23:17:02.661Z,16.07
2018-04-19T23:19:28.400Z,11.37
2018-04-19T23:21:54.128Z,16.57
2018-04-19T23:24:19.872Z,13.60
2018-04-19T23:26:45.599Z,16.30
2018-04-19T23:29:11.348Z,13.70
2018-04-19T23:31:37.092Z,13.70
2018-04-19T23:34:02.842Z,15.67
2018-04-19T23:36:28.567Z,13.23
2018-04-19T23:38:54.323Z,15.70
2018-04-19T23:41:20.057Z,16.20
2018-04-19T23:43:45.797Z,15.83
2018-04-19T23:46:11.559Z,15.77
2018-04-19T23:48:37.292Z,17.47
2018-04-19T23:51:03.048Z,14.93
2018-04-19T23:53:28.798Z,15.10
2018-04-19T23:55:54.552Z,15.13
2018-04-19T23:58:20.288Z,14.50
